sensor_id;sensor_type;location;lat;lon;timestamp;pressure;altitude;pressure_sealevel;temperature;humidity
13486;BME280;6815;59.336;17.998;2023-06-24T00:00:44;52025.28;;;-145.37;57.43
13486;BME280;6815;59.336;17.998;2023-06-24T00:03:10;52023.28;;;-145.37;56.88
13486;BME280;6815;59.336;17.998;2023-06-24T00:05:37;52069.19;;;-145.37;57.53
13486;BME280;6815;59.336;17.998;2023-06-24T00:08:04;51973.38;;;-145.37;57.98
13486;BME280;6815;59.336;17.998;2023-06-24T00:10:32;52053.22;;;-145.37;60.11
13486;BME280;6815;59.336;17.998;2023-06-24T00:12:57;52005.31;;;-145.37;59.82
13486;BME280;6815;59.336;17.998;2023-06-24T00:15:26;52031.25;;;-145.37;60.20
13486;BME280;6815;59.336;17.998;2023-06-24T00:17:52;51977.38;;;-145.37;61.09
13486;BME280;6815;59.336;17.998;2023-06-24T00:20:17;52023.28;;;-145.37;60.88
13486;BME280;6815;59.336;17.998;2023-06-24T00:22:45;52039.25;;;-145.37;60.31
13486;BME280;6815;59.336;17.998;2023-06-24T00:25:13;52033.25;;;-145.37;61.97
13486;BME280;6815;59.336;17.998;2023-06-24T00:27:40;52051.22;;;-145.37;63.25
13486;BME280;6815;59.336;17.998;2023-06-24T00:30:06;52023.28;;;-145.37;62.91
13486;BME280;6815;59.336;17.998;2023-06-24T00:32:32;52057.22;;;-145.37;62.74
13486;BME280;6815;59.336;17.998;2023-06-24T00:34:57;52001.31;;;-145.37;61.21
13486;BME280;6815;59.336;17.998;2023-06-24T00:37:25;52013.31;;;-145.37;61.42
13486;BME280;6815;59.336;17.998;2023-06-24T00:39:50;52027.28;;;-145.37;61.64
13486;BME280;6815;59.336;17.998;2023-06-24T00:42:16;52041.25;;;-145.37;61.53
13486;BME280;6815;59.336;17.998;2023-06-24T00:44:41;51989.34;;;-145.37;61.35
13486;BME280;6815;59.336;17.998;2023-06-24T00:47:07;52061.22;;;-145.37;61.45
13486;BME280;6815;59.336;17.998;2023-06-24T00:49:33;52053.22;;;-145.37;61.25
13486;BME280;6815;59.336;17.998;2023-06-24T00:51:59;52071.19;;;-145.37;60.94
13486;BME280;6815;59.336;17.998;2023-06-24T00:54:26;51991.34;;;-145.37;60.57
13486;BME280;6815;59.336;17.998;2023-06-24T00:56:58;52035.25;;;-145.37;60.34
13486;BME280;6815;59.336;17.998;2023-06-24T00:59:26;52003.31;;;-145.37;60.26
13486;BME280;6815;59.336;17.998;2023-06-24T01:01:55;52039.25;;;-145.37;59.13
13486;BME280;6815;59.336;17.998;2023-06-24T01:04:20;52061.22;;;-145.37;58.55
13486;BME280;6815;59.336;17.998;2023-06-24T01:06:46;52041.25;;;-145.37;59.24
13486;BME280;6815;59.336;17.998;2023-06-24T01:09:12;52013.31;;;-145.37;58.66
13486;BME280;6815;59.336;17.998;2023-06-24T01:11:38;52105.13;;;-145.37;58.59
13486;BME280;6815;59.336;17.998;2023-06-24T01:14:04;52061.22;;;-145.37;58.07
13486;BME280;6815;59.336;17.998;2023-06-24T01:32:54;52033.25;;;-145.37;57.49
13486;BME280;6815;59.336;17.998;2023-06-24T01:35:25;52075.19;;;-145.37;57.41
13486;BME280;6815;59.336;17.998;2023-06-24T01:37:54;52009.31;;;-145.37;56.42
13486;BME280;6815;59.336;17.998;2023-06-24T01:40:28;52053.22;;;-145.37;55.81
13486;BME280;6815;59.336;17.998;2023-06-24T01:42:57;52196.94;;;-145.37;55.28
13486;BME280;6815;59.336;17.998;2023-06-24T01:45:28;52047.25;;;-145.37;55.59
13486;BME280;6815;59.336;17.998;2023-06-24T01:48:02;52101.13;;;-145.37;55.44
13486;BME280;6815;59.336;17.998;2023-06-24T01:50:33;52085.16;;;-145.37;54.70
13486;BME280;6815;59.336;17.998;2023-06-24T01:53:01;52017.28;;;-145.37;54.72
13486;BME280;6815;59.336;17.998;2023-06-24T01:55:29;52059.22;;;-145.37;54.44
13486;BME280;6815;59.336;17.998;2023-06-24T01:57:57;52027.28;;;-145.37;54.94
13486;BME280;6815;59.336;17.998;2023-06-24T02:00:23;52045.25;;;-145.37;54.56
13486;BME280;6815;59.336;17.998;2023-06-24T02:02:50;52017.28;;;-145.37;53.91
13486;BME280;6815;59.336;17.998;2023-06-24T02:05:17;52051.22;;;-145.37;54.10
13486;BME280;6815;59.336;17.998;2023-06-24T02:07:46;52057.22;;;-145.37;53.53
13486;BME280;6815;59.336;17.998;2023-06-24T02:10:13;52055.22;;;-145.37;53.65
13486;BME280;6815;59.336;17.998;2023-06-24T02:12:41;52021.28;;;-145.37;53.80
13486;BME280;6815;59.336;17.998;2023-06-24T02:15:08;52083.16;;;-145.37;53.37
13486;BME280;6815;59.336;17.998;2023-06-24T02:17:34;52021.28;;;-145.37;53.52
13486;BME280;6815;59.336;17.998;2023-06-24T02:20:01;52051.22;;;-145.37;53.55
13486;BME280;6815;59.336;17.998;2023-06-24T02:22:27;52041.25;;;-145.37;53.65
13486;BME280;6815;59.336;17.998;2023-06-24T02:24:54;52071.19;;;-145.37;53.52
13486;BME280;6815;59.336;17.998;2023-06-24T02:27:20;52063.22;;;-145.37;53.56
13486;BME280;6815;59.336;17.998;2023-06-24T02:29:47;52041.25;;;-145.37;53.51
13486;BME280;6815;59.336;17.998;2023-06-24T02:32:12;52055.22;;;-145.37;53.78
13486;BME280;6815;59.336;17.998;2023-06-24T02:34:39;52003.31;;;-145.37;53.64
13486;BME280;6815;59.336;17.998;2023-06-24T02:37:04;52011.31;;;-145.37;53.19
13486;BME280;6815;59.336;17.998;2023-06-24T02:39:30;52059.22;;;-145.37;53.35
13486;BME280;6815;59.336;17.998;2023-06-24T02:41:55;52059.22;;;-145.37;53.21
13486;BME280;6815;59.336;17.998;2023-06-24T02:44:21;52065.19;;;-145.37;52.86
13486;BME280;6815;59.336;17.998;2023-06-24T02:46:48;52017.28;;;-145.37;52.93
13486;BME280;6815;59.336;17.998;2023-06-24T02:49:15;52077.19;;;-145.37;52.88
13486;BME280;6815;59.336;17.998;2023-06-24T02:51:43;52009.31;;;-145.37;52.52
13486;BME280;6815;59.336;17.998;2023-06-24T02:54:09;52061.22;;;-145.37;52.66
13486;BME280;6815;59.336;17.998;2023-06-24T02:56:36;52041.25;;;-145.37;52.14
13486;BME280;6815;59.336;17.998;2023-06-24T02:59:07;52025.28;;;-145.37;52.35
13486;BME280;6815;59.336;17.998;2023-06-24T03:01:32;52095.16;;;-145.37;52.36
13486;BME280;6815;59.336;17.998;2023-06-24T03:04:04;52057.22;;;-145.37;52.27
13486;BME280;6815;59.336;17.998;2023-06-24T03:06:30;52027.28;;;-145.37;52.39
13486;BME280;6815;59.336;17.998;2023-06-24T03:08:57;52059.22;;;-145.37;52.27
13486;BME280;6815;59.336;17.998;2023-06-24T03:11:23;52023.28;;;-145.37;52.25
13486;BME280;6815;59.336;17.998;2023-06-24T03:13:48;52037.25;;;-145.37;52.69
13486;BME280;6815;59.336;17.998;2023-06-24T03:16:14;52049.22;;;-145.37;52.97
13486;BME280;6815;59.336;17.998;2023-06-24T03:18:43;52025.28;;;-145.37;52.65
13486;BME280;6815;59.336;17.998;2023-06-24T03:21:11;52037.25;;;-145.37;52.30
13486;BME280;6815;59.336;17.998;2023-06-24T03:23:36;52095.16;;;-145.37;52.31
13486;BME280;6815;59.336;17.998;2023-06-24T03:26:02;52220.91;;;-145.37;52.10
13486;BME280;6815;59.336;17.998;2023-06-24T03:28:31;52053.22;;;-145.37;51.39
13486;BME280;6815;59.336;17.998;2023-06-24T03:30:57;52033.25;;;-145.37;50.89
13486;BME280;6815;59.336;17.998;2023-06-24T03:33:23;52051.22;;;-145.37;49.56
13486;BME280;6815;59.336;17.998;2023-06-24T03:35:50;52085.16;;;-145.37;48.79
13486;BME280;6815;59.336;17.998;2023-06-24T03:38:15;52089.16;;;-145.37;47.92
13486;BME280;6815;59.336;17.998;2023-06-24T03:40:40;52029.28;;;-145.37;47.26
13486;BME280;6815;59.336;17.998;2023-06-24T03:43:06;52031.25;;;-145.37;45.81
13486;BME280;6815;59.336;17.998;2023-06-24T03:45:31;52087.16;;;-145.37;44.95
13486;BME280;6815;59.336;17.998;2023-06-24T03:47:57;52061.22;;;-145.37;43.98
13486;BME280;6815;59.336;17.998;2023-06-24T03:50:22;52065.19;;;-145.37;42.96
13486;BME280;6815;59.336;17.998;2023-06-24T03:52:47;52065.19;;;-145.37;40.75
13486;BME280;6815;59.336;17.998;2023-06-24T03:55:13;52087.16;;;-145.37;39.91
13486;BME280;6815;59.336;17.998;2023-06-24T03:57:38;52055.22;;;-145.37;39.79
13486;BME280;6815;59.336;17.998;2023-06-24T04:00:04;52013.31;;;-145.37;39.73
13486;BME280;6815;59.336;17.998;2023-06-24T04:02:42;52071.19;;;-145.37;39.70
13486;BME280;6815;59.336;17.998;2023-06-24T04:05:09;52085.16;;;-145.37;39.40
13486;BME280;6815;59.336;17.998;2023-06-24T04:07:34;52013.31;;;-145.37;39.61
13486;BME280;6815;59.336;17.998;2023-06-24T04:10:01;52027.28;;;-145.37;39.49
13486;BME280;6815;59.336;17.998;2023-06-24T04:12:27;51999.34;;;-145.37;38.51
13486;BME280;6815;59.336;17.998;2023-06-24T04:14:52;52023.28;;;-145.37;38.55
13486;BME280;6815;59.336;17.998;2023-06-24T04:17:18;52037.25;;;-145.37;38.02
13486;BME280;6815;59.336;17.998;2023-06-24T04:19:43;52009.31;;;-145.37;37.68
13486;BME280;6815;59.336;17.998;2023-06-24T04:22:09;52007.31;;;-145.37;37.23
13486;BME280;6815;59.336;17.998;2023-06-24T04:24:35;52033.25;;;-145.37;36.91
13486;BME280;6815;59.336;17.998;2023-06-24T04:27:00;52025.28;;;-145.37;36.20
13486;BME280;6815;59.336;17.998;2023-06-24T04:29:26;52169.00;;;-145.37;36.39
13486;BME280;6815;59.336;17.998;2023-06-24T04:31:51;52003.31;;;-145.37;35.57
13486;BME280;6815;59.336;17.998;2023-06-24T04:34:16;52003.31;;;-145.37;35.30
13486;BME280;6815;59.336;17.998;2023-06-24T04:36:42;52049.22;;;-145.37;34.96
13486;BME280;6815;59.336;17.998;2023-06-24T04:39:07;51993.34;;;-145.37;34.28
13486;BME280;6815;59.336;17.998;2023-06-24T04:41:33;51985.34;;;-145.37;33.66
13486;BME280;6815;59.336;17.998;2023-06-24T04:43:58;52009.31;;;-145.37;33.17
13486;BME280;6815;59.336;17.998;2023-06-24T04:46:24;52089.16;;;-145.37;33.22
13486;BME280;6815;59.336;17.998;2023-06-24T04:48:49;51985.34;;;-145.37;32.99
13486;BME280;6815;59.336;17.998;2023-06-24T04:51:15;51995.34;;;-145.37;32.93
13486;BME280;6815;59.336;17.998;2023-06-24T04:53:40;51957.41;;;-145.37;33.13
13486;BME280;6815;59.336;17.998;2023-06-24T04:56:06;51983.34;;;-145.37;32.84
13486;BME280;6815;59.336;17.998;2023-06-24T04:58:32;51985.34;;;-145.37;32.67
13486;BME280;6815;59.336;17.998;2023-06-24T05:00:57;52027.28;;;-145.37;32.72
13486;BME280;6815;59.336;17.998;2023-06-24T05:03:24;51965.41;;;-145.37;32.80
13486;BME280;6815;59.336;17.998;2023-06-24T05:05:49;51971.38;;;-145.37;32.37
13486;BME280;6815;59.336;17.998;2023-06-24T05:08:15;52017.28;;;-145.37;31.88
13486;BME280;6815;59.336;17.998;2023-06-24T05:10:40;51969.38;;;-145.37;31.91
13486;BME280;6815;59.336;17.998;2023-06-24T05:13:05;51983.34;;;-145.37;32.01
13486;BME280;6815;59.336;17.998;2023-06-24T05:15:31;51985.34;;;-145.37;31.57
13486;BME280;6815;59.336;17.998;2023-06-24T05:17:56;51917.50;;;-145.37;31.65
13486;BME280;6815;59.336;17.998;2023-06-24T05:20:22;51969.38;;;-145.37;31.48
13486;BME280;6815;59.336;17.998;2023-06-24T05:22:47;51961.41;;;-145.37;31.25
13486;BME280;6815;59.336;17.998;2023-06-24T05:25:12;51979.38;;;-145.37;31.08
13486;BME280;6815;59.336;17.998;2023-06-24T05:27:38;51923.47;;;-145.37;31.51
13486;BME280;6815;59.336;17.998;2023-06-24T05:30:04;51977.38;;;-145.37;31.43
13486;BME280;6815;59.336;17.998;2023-06-24T05:32:30;51969.38;;;-145.37;30.86
13486;BME280;6815;59.336;17.998;2023-06-24T05:34:55;51995.34;;;-145.37;30.55
13486;BME280;6815;59.336;17.998;2023-06-24T05:37:20;51975.38;;;-145.37;30.55
13486;BME280;6815;59.336;17.998;2023-06-24T05:39:46;52099.13;;;-145.37;30.61
13486;BME280;6815;59.336;17.998;2023-06-24T05:42:11;51937.44;;;-145.37;30.39
13486;BME280;6815;59.336;17.998;2023-06-24T05:44:36;51931.47;;;-145.37;30.31
13486;BME280;6815;59.336;17.998;2023-06-24T05:47:02;51971.38;;;-145.37;30.28
13486;BME280;6815;59.336;17.998;2023-06-24T05:49:27;51955.41;;;-145.37;30.94
13486;BME280;6815;59.336;17.998;2023-06-24T05:51:53;51973.38;;;-145.37;30.64
13486;BME280;6815;59.336;17.998;2023-06-24T05:54:18;51937.44;;;-145.37;30.27
13486;BME280;6815;59.336;17.998;2023-06-24T05:56:44;51933.47;;;-145.37;29.74
13486;BME280;6815;59.336;17.998;2023-06-24T05:59:09;51943.44;;;-145.37;29.63
13486;BME280;6815;59.336;17.998;2023-06-24T06:01:34;51951.41;;;-145.37;29.81
13486;BME280;6815;59.336;17.998;2023-06-24T06:04:00;51943.44;;;-145.37;29.56
13486;BME280;6815;59.336;17.998;2023-06-24T06:06:25;51929.47;;;-145.37;29.13
13486;BME280;6815;59.336;17.998;2023-06-24T06:08:52;51941.44;;;-145.37;28.73
13486;BME280;6815;59.336;17.998;2023-06-24T06:11:17;51951.41;;;-145.37;28.96
13486;BME280;6815;59.336;17.998;2023-06-24T06:13:43;51929.47;;;-145.37;28.45
13486;BME280;6815;59.336;17.998;2023-06-24T06:16:08;51933.47;;;-145.37;28.44
13486;BME280;6815;59.336;17.998;2023-06-24T06:18:33;51911.50;;;-145.37;28.22
13486;BME280;6815;59.336;17.998;2023-06-24T06:20:59;51927.47;;;-145.37;28.97
13486;BME280;6815;59.336;17.998;2023-06-24T06:23:24;51933.47;;;-145.37;28.68
13486;BME280;6815;59.336;17.998;2023-06-24T06:25:51;51929.47;;;-145.37;28.22
13486;BME280;6815;59.336;17.998;2023-06-24T06:28:16;51893.53;;;-145.37;28.10
13486;BME280;6815;59.336;17.998;2023-06-24T06:30:42;51925.47;;;-145.37;28.29
13486;BME280;6815;59.336;17.998;2023-06-24T06:33:07;51929.47;;;-145.37;27.68
13486;BME280;6815;59.336;17.998;2023-06-24T06:35:32;51919.50;;;-145.37;27.38
13486;BME280;6815;59.336;17.998;2023-06-24T06:37:58;51927.47;;;-145.37;27.45
13486;BME280;6815;59.336;17.998;2023-06-24T06:40:23;51901.53;;;-145.37;27.60
13486;BME280;6815;59.336;17.998;2023-06-24T06:42:49;51925.47;;;-145.37;28.01
13486;BME280;6815;59.336;17.998;2023-06-24T06:45:14;51893.53;;;-145.37;27.71
13486;BME280;6815;59.336;17.998;2023-06-24T06:47:40;51937.44;;;-145.37;27.45
13486;BME280;6815;59.336;17.998;2023-06-24T06:50:06;51933.47;;;-145.37;27.61
13486;BME280;6815;59.336;17.998;2023-06-24T06:52:33;51859.59;;;-145.37;27.55
13486;BME280;6815;59.336;17.998;2023-06-24T06:54:58;51889.53;;;-145.37;27.60
13486;BME280;6815;59.336;17.998;2023-06-24T06:57:23;51861.59;;;-145.37;27.54
13486;BME280;6815;59.336;17.998;2023-06-24T06:59:49;51927.47;;;-145.37;27.52
13486;BME280;6815;59.336;17.998;2023-06-24T07:02:19;51933.47;;;-145.37;27.52
13486;BME280;6815;59.336;17.998;2023-06-24T07:04:44;51947.44;;;-145.37;27.35
13486;BME280;6815;59.336;17.998;2023-06-24T07:07:10;51937.44;;;-145.37;27.88
13486;BME280;6815;59.336;17.998;2023-06-24T07:09:37;51943.44;;;-145.37;27.57
13486;BME280;6815;59.336;17.998;2023-06-24T07:12:02;51915.50;;;-145.37;27.75
13486;BME280;6815;59.336;17.998;2023-06-24T07:14:28;51933.47;;;-145.37;27.90
13486;BME280;6815;59.336;17.998;2023-06-24T07:16:53;51929.47;;;-145.37;27.60
13486;BME280;6815;59.336;17.998;2023-06-24T07:19:18;52077.19;;;-145.37;27.73
13486;BME280;6815;59.336;17.998;2023-06-24T07:21:44;51927.47;;;-145.37;27.57
13486;BME280;6815;59.336;17.998;2023-06-24T07:24:09;51917.50;;;-145.37;28.01
13486;BME280;6815;59.336;17.998;2023-06-24T07:26:35;51943.44;;;-145.37;27.85
13486;BME280;6815;59.336;17.998;2023-06-24T07:29:00;51903.50;;;-145.37;28.16
13486;BME280;6815;59.336;17.998;2023-06-24T07:31:26;51907.50;;;-145.37;28.23
13486;BME280;6815;59.336;17.998;2023-06-24T07:33:51;51917.50;;;-145.37;28.35
13486;BME280;6815;59.336;17.998;2023-06-24T07:36:17;51925.47;;;-145.37;28.04
13486;BME280;6815;59.336;17.998;2023-06-24T07:38:42;51899.53;;;-145.37;28.10
13486;BME280;6815;59.336;17.998;2023-06-24T07:41:08;51921.47;;;-145.37;28.12
13486;BME280;6815;59.336;17.998;2023-06-24T07:43:33;51945.44;;;-145.37;28.45
13486;BME280;6815;59.336;17.998;2023-06-24T07:45:59;51907.50;;;-145.37;28.54
13486;BME280;6815;59.336;17.998;2023-06-24T07:48:24;51907.50;;;-145.37;28.61
13486;BME280;6815;59.336;17.998;2023-06-24T07:50:49;51923.47;;;-145.37;27.95
13486;BME280;6815;59.336;17.998;2023-06-24T07:53:15;51923.47;;;-145.37;27.62
13486;BME280;6815;59.336;17.998;2023-06-24T07:55:40;52101.13;;;-145.37;27.81
13486;BME280;6815;59.336;17.998;2023-06-24T07:58:06;51915.50;;;-145.37;27.92
13486;BME280;6815;59.336;17.998;2023-06-24T08:00:33;51907.50;;;-145.37;28.61
13486;BME280;6815;59.336;17.998;2023-06-24T08:02:58;51917.50;;;-145.37;28.35
13486;BME280;6815;59.336;17.998;2023-06-24T08:05:24;51903.50;;;-145.37;28.51
13486;BME280;6815;59.336;17.998;2023-06-24T08:07:51;51909.50;;;-145.37;28.37
13486;BME280;6815;59.336;17.998;2023-06-24T08:10:16;51919.50;;;-145.37;29.07
13486;BME280;6815;59.336;17.998;2023-06-24T08:12:42;51955.41;;;-145.37;28.88
13486;BME280;6815;59.336;17.998;2023-06-24T08:15:07;51931.47;;;-145.37;29.00
13486;BME280;6815;59.336;17.998;2023-06-24T08:17:33;51925.47;;;-145.37;28.72
13486;BME280;6815;59.336;17.998;2023-06-24T08:19:58;51905.50;;;-145.37;28.97
13486;BME280;6815;59.336;17.998;2023-06-24T08:22:24;51905.50;;;-145.37;28.90
13486;BME280;6815;59.336;17.998;2023-06-24T08:24:49;51899.53;;;-145.37;29.24
13486;BME280;6815;59.336;17.998;2023-06-24T08:27:15;51909.50;;;-145.37;29.00
13486;BME280;6815;59.336;17.998;2023-06-24T08:29:40;52027.28;;;-145.37;29.06
13486;BME280;6815;59.336;17.998;2023-06-24T08:32:06;51919.50;;;-145.37;29.12
13486;BME280;6815;59.336;17.998;2023-06-24T08:34:32;51939.44;;;-145.37;29.64
13486;BME280;6815;59.336;17.998;2023-06-24T08:36:58;51955.41;;;-145.37;29.56
13486;BME280;6815;59.336;17.998;2023-06-24T08:39:23;51913.50;;;-145.37;29.71
13486;BME280;6815;59.336;17.998;2023-06-24T08:41:49;51915.50;;;-145.37;29.63
13486;BME280;6815;59.336;17.998;2023-06-24T08:44:14;51871.59;;;-145.37;29.48
13486;BME280;6815;59.336;17.998;2023-06-24T08:46:40;51949.44;;;-145.37;29.95
13486;BME280;6815;59.336;17.998;2023-06-24T08:49:09;51961.41;;;-145.37;30.17
13486;BME280;6815;59.336;17.998;2023-06-24T08:51:41;51957.41;;;-145.37;29.66
13486;BME280;6815;59.336;17.998;2023-06-24T08:54:10;51915.50;;;-145.37;29.61
13486;BME280;6815;59.336;17.998;2023-06-24T08:56:37;51919.50;;;-145.37;29.43
13486;BME280;6815;59.336;17.998;2023-06-24T08:59:05;51937.44;;;-145.37;29.20
13486;BME280;6815;59.336;17.998;2023-06-24T09:01:31;51935.47;;;-145.37;28.89
13486;BME280;6815;59.336;17.998;2023-06-24T09:03:56;51925.47;;;-145.37;29.35
13486;BME280;6815;59.336;17.998;2023-06-24T09:06:22;51935.47;;;-145.37;29.17
13486;BME280;6815;59.336;17.998;2023-06-24T09:08:54;51963.41;;;-145.37;29.40
13486;BME280;6815;59.336;17.998;2023-06-24T09:11:26;51965.41;;;-145.37;29.51
13486;BME280;6815;59.336;17.998;2023-06-24T09:13:59;51965.41;;;-145.37;29.30
13486;BME280;6815;59.336;17.998;2023-06-24T09:16:25;51919.50;;;-145.37;29.65
13486;BME280;6815;59.336;17.998;2023-06-24T09:18:51;51925.47;;;-145.37;30.65
13486;BME280;6815;59.336;17.998;2023-06-24T09:21:25;51945.44;;;-145.37;30.22
13486;BME280;6815;59.336;17.998;2023-06-24T09:23:56;51967.38;;;-145.37;29.82
13486;BME280;6815;59.336;17.998;2023-06-24T09:26:25;51913.50;;;-145.37;29.88
13486;BME280;6815;59.336;17.998;2023-06-24T09:28:52;51927.47;;;-145.37;30.23
13486;BME280;6815;59.336;17.998;2023-06-24T09:31:18;51915.50;;;-145.37;30.52
13486;BME280;6815;59.336;17.998;2023-06-24T09:33:44;51933.47;;;-145.37;30.41
13486;BME280;6815;59.336;17.998;2023-06-24T09:36:14;51937.44;;;-145.37;30.07
13486;BME280;6815;59.336;17.998;2023-06-24T09:38:41;51945.44;;;-145.37;30.37
13486;BME280;6815;59.336;17.998;2023-06-24T09:41:08;51941.44;;;-145.37;30.29
13486;BME280;6815;59.336;17.998;2023-06-24T09:43:34;51951.41;;;-145.37;30.21
13486;BME280;6815;59.336;17.998;2023-06-24T09:46:05;51901.53;;;-145.37;30.07
13486;BME280;6815;59.336;17.998;2023-06-24T09:48:31;51949.44;;;-145.37;30.25
13486;BME280;6815;59.336;17.998;2023-06-24T09:51:00;51925.47;;;-145.37;30.66
13486;BME280;6815;59.336;17.998;2023-06-24T09:53:33;51911.50;;;-145.37;30.43
13486;BME280;6815;59.336;17.998;2023-06-24T09:56:03;51971.38;;;-145.37;30.52
13486;BME280;6815;59.336;17.998;2023-06-24T09:58:31;51933.47;;;-145.37;30.31
13486;BME280;6815;59.336;17.998;2023-06-24T10:01:02;51915.50;;;-145.37;30.14
13486;BME280;6815;59.336;17.998;2023-06-24T10:03:29;51917.50;;;-145.37;30.20
13486;BME280;6815;59.336;17.998;2023-06-24T10:05:55;51951.41;;;-145.37;30.17
13486;BME280;6815;59.336;17.998;2023-06-24T10:08:20;51917.50;;;-145.37;30.31
13486;BME280;6815;59.336;17.998;2023-06-24T10:10:46;51935.47;;;-145.37;30.63
13486;BME280;6815;59.336;17.998;2023-06-24T10:13:12;51935.47;;;-145.37;30.84
13486;BME280;6815;59.336;17.998;2023-06-24T10:15:37;51969.38;;;-145.37;30.87
13486;BME280;6815;59.336;17.998;2023-06-24T10:18:03;51945.44;;;-145.37;30.62
13486;BME280;6815;59.336;17.998;2023-06-24T10:20:48;51929.47;;;-145.37;30.73
13486;BME280;6815;59.336;17.998;2023-06-24T10:23:14;51965.41;;;-145.37;30.96
13486;BME280;6815;59.336;17.998;2023-06-24T10:25:39;51933.47;;;-145.37;30.60
13486;BME280;6815;59.336;17.998;2023-06-24T10:28:05;51971.38;;;-145.37;30.58
13486;BME280;6815;59.336;17.998;2023-06-24T10:30:30;51975.38;;;-145.37;30.78
13486;BME280;6815;59.336;17.998;2023-06-24T10:32:57;51941.44;;;-145.37;30.99
13486;BME280;6815;59.336;17.998;2023-06-24T10:35:27;51929.47;;;-145.37;31.28
13486;BME280;6815;59.336;17.998;2023-06-24T10:37:56;51937.44;;;-145.37;31.01
13486;BME280;6815;59.336;17.998;2023-06-24T10:40:35;51963.41;;;-145.37;31.13
13486;BME280;6815;59.336;17.998;2023-06-24T10:43:26;51931.47;;;-145.37;31.25
13486;BME280;6815;59.336;17.998;2023-06-24T10:45:57;51961.41;;;-145.37;31.13
13486;BME280;6815;59.336;17.998;2023-06-24T10:48:24;51939.44;;;-145.37;31.96
13486;BME280;6815;59.336;17.998;2023-06-24T10:50:50;51943.44;;;-145.37;32.01
13486;BME280;6815;59.336;17.998;2023-06-24T10:53:16;51895.53;;;-145.37;31.96
13486;BME280;6815;59.336;17.998;2023-06-24T10:55:44;51929.47;;;-145.37;32.72
13486;BME280;6815;59.336;17.998;2023-06-24T10:58:12;52169.00;;;-145.37;32.77
13486;BME280;6815;59.336;17.998;2023-06-24T11:00:39;51923.47;;;-145.37;32.54
13486;BME280;6815;59.336;17.998;2023-06-24T11:03:12;51977.38;;;-145.37;32.51
13486;BME280;6815;59.336;17.998;2023-06-24T11:05:42;51953.41;;;-145.37;32.13
13486;BME280;6815;59.336;17.998;2023-06-24T11:08:08;51941.44;;;-145.37;32.40
13486;BME280;6815;59.336;17.998;2023-06-24T11:10:47;51963.41;;;-145.37;32.59
13486;BME280;6815;59.336;17.998;2023-06-24T11:13:14;51957.41;;;-145.37;33.08
13486;BME280;6815;59.336;17.998;2023-06-24T11:15:40;51957.41;;;-145.37;33.24
13486;BME280;6815;59.336;17.998;2023-06-24T11:18:08;51935.47;;;-145.37;32.85
13486;BME280;6815;59.336;17.998;2023-06-24T11:20:38;51953.41;;;-145.37;32.95
13486;BME280;6815;59.336;17.998;2023-06-24T11:23:08;51935.47;;;-145.37;33.29
13486;BME280;6815;59.336;17.998;2023-06-24T11:25:42;51943.44;;;-145.37;32.85
13486;BME280;6815;59.336;17.998;2023-06-24T11:28:16;51929.47;;;-145.37;32.57
13486;BME280;6815;59.336;17.998;2023-06-24T11:30:42;51945.44;;;-145.37;32.71
13486;BME280;6815;59.336;17.998;2023-06-24T11:33:07;51971.38;;;-145.37;33.02
13486;BME280;6815;59.336;17.998;2023-06-24T11:35:33;51927.47;;;-145.37;33.18
13486;BME280;6815;59.336;17.998;2023-06-24T11:38:01;51929.47;;;-145.37;33.05
13486;BME280;6815;59.336;17.998;2023-06-24T11:40:26;51941.44;;;-145.37;33.27
13486;BME280;6815;59.336;17.998;2023-06-24T11:42:51;51925.47;;;-145.37;32.96
13486;BME280;6815;59.336;17.998;2023-06-24T11:45:20;51913.50;;;-145.37;32.96
13486;BME280;6815;59.336;17.998;2023-06-24T11:47:46;51929.47;;;-145.37;33.01
13486;BME280;6815;59.336;17.998;2023-06-24T11:50:11;51933.47;;;-145.37;33.14
13486;BME280;6815;59.336;17.998;2023-06-24T11:52:42;51919.50;;;-145.37;33.27
13486;BME280;6815;59.336;17.998;2023-06-24T11:55:27;51963.41;;;-145.37;32.96
13486;BME280;6815;59.336;17.998;2023-06-24T11:57:54;51937.44;;;-145.37;33.21
13486;BME280;6815;59.336;17.998;2023-06-24T12:00:24;51933.47;;;-145.37;33.45
13486;BME280;6815;59.336;17.998;2023-06-24T12:02:54;51939.44;;;-145.37;33.74
13486;BME280;6815;59.336;17.998;2023-06-24T12:05:22;52091.16;;;-145.37;33.76
13486;BME280;6815;59.336;17.998;2023-06-24T12:07:53;51935.47;;;-145.37;33.94
13486;BME280;6815;59.336;17.998;2023-06-24T12:10:18;51933.47;;;-145.37;33.88
13486;BME280;6815;59.336;17.998;2023-06-24T12:12:44;51973.38;;;-145.37;33.97
13486;BME280;6815;59.336;17.998;2023-06-24T12:15:09;51925.47;;;-145.37;33.84
13486;BME280;6815;59.336;17.998;2023-06-24T12:17:35;51935.47;;;-145.37;34.01
13486;BME280;6815;59.336;17.998;2023-06-24T12:20:00;51933.47;;;-145.37;33.97
13486;BME280;6815;59.336;17.998;2023-06-24T12:22:26;51935.47;;;-145.37;33.86
13486;BME280;6815;59.336;17.998;2023-06-24T12:24:52;51911.50;;;-145.37;34.06
13486;BME280;6815;59.336;17.998;2023-06-24T12:27:17;52093.16;;;-145.37;33.95
13486;BME280;6815;59.336;17.998;2023-06-24T12:29:43;51897.53;;;-145.37;34.05
13486;BME280;6815;59.336;17.998;2023-06-24T12:32:08;51913.50;;;-145.37;34.31
13486;BME280;6815;59.336;17.998;2023-06-24T12:34:33;51941.44;;;-145.37;33.93
13486;BME280;6815;59.336;17.998;2023-06-24T12:36:59;51909.50;;;-145.37;34.27
13486;BME280;6815;59.336;17.998;2023-06-24T12:39:24;51911.50;;;-145.37;33.95
13486;BME280;6815;59.336;17.998;2023-06-24T12:41:50;51927.47;;;-145.37;33.93
13486;BME280;6815;59.336;17.998;2023-06-24T12:44:15;51909.50;;;-145.37;34.02
13486;BME280;6815;59.336;17.998;2023-06-24T12:46:40;51895.53;;;-145.37;33.76
13486;BME280;6815;59.336;17.998;2023-06-24T12:49:06;51945.44;;;-145.37;33.89
13486;BME280;6815;59.336;17.998;2023-06-24T12:51:31;51913.50;;;-145.37;34.22
13486;BME280;6815;59.336;17.998;2023-06-24T12:53:57;51927.47;;;-145.37;33.98